Latest Weather Observations for Macquarie Island

IDT60801

Issued at 10:11 am EST Tuesday 26 May 2020 (issued every 10 minutes, with the page automatically refreshed every 10 minutes)

About weather observations | Map of weather stations | Latest weather observations for TAS | Other Formats
Station Details ID: 300004 Name: MACQUARIE ISLAND Lat: -54.50 Lon: 158.94 Height: 6.0 m
Data from the previous 72 hours. | See also: Recent months at Macquarie Island
Date/Time
EST
Temp
°C
App
Temp
°C
Dew
Point
°C
Rel
Hum
%
Delta-T
°C
Wind Press
QNH
hPa
Press
MSL
hPa
Rain since
9am
mm
Dir  Spd
km/h
Gust
km/h
Spd
kts
Gust
kts
26/10:00am 6.1 -3.2 5.7 97 0.2 W 44 54 24 29 1015.5 - 0.0
26/09:30am 6.2 -3.5 5.8 97 0.2 W 46 56 25 30 1015.3 - 0.0
26/09:00am 6.1 -3.2 5.7 97 0.2 W 44 54 24 29 1015.6 1015.9 1.4
26/08:30am 6.0 -2.0 5.6 97 0.2 WNW 37 43 20 23 1015.2 - 1.4
26/08:00am 6.0 -2.8 5.6 97 0.2 WNW 41 52 22 28 1015.2 - 1.4
26/07:30am 6.0 -2.8 5.6 97 0.2 WNW 41 48 22 26 1015.0 - 1.2
26/07:00am 6.0 -3.4 5.4 96 0.3 WNW 44 56 24 30 1014.6 - 1.2
26/06:30am 6.0 -3.8 5.4 96 0.3 W 46 59 25 32 1014.0 - 1.2
26/06:00am 6.1 -5.2 5.5 96 0.3 W 54 65 29 35 1013.8 1014.1 1.2
26/05:30am 6.1 -5.2 5.5 96 0.3 W 54 67 29 36 1013.5 - 1.2
26/05:00am 6.1 -4.8 5.5 96 0.3 W 52 61 28 33 1013.3 - 1.2
26/04:30am 6.1 -4.4 5.5 96 0.3 W 50 65 27 35 1013.2 - 1.2
26/04:25am 6.0 -3.4 5.4 96 0.3 W 44 63 24 34 1013.3 - 1.2
26/04:00am 6.0 -3.2 5.4 96 0.3 W 43 57 23 31 1013.0 - 1.2
26/03:30am 6.0 -3.8 5.4 96 0.3 W 46 57 25 31 1013.1 - 1.2
26/03:12am 5.9 -3.3 5.3 96 0.3 W 43 63 23 34 1013.3 - 1.2
26/03:00am 5.9 -3.9 5.3 96 0.3 W 46 57 25 31 1013.2 1013.5 1.2
26/02:30am 5.9 -1.8 5.5 97 0.2 W 35 43 19 23 1012.9 - 1.2
26/02:00am 5.9 -3.9 5.5 97 0.2 W 46 57 25 31 1012.9 - 1.2
26/01:30am 6.1 -2.7 5.7 97 0.2 W 41 50 22 27 1012.7 - 1.2
26/01:00am 6.2 -2.5 5.8 97 0.2 W 41 48 22 26 1012.3 - 1.0
26/12:30am 6.2 -3.1 5.8 97 0.2 W 44 56 24 30 1012.0 - 1.0
26/12:00am 6.3 -2.8 5.9 97 0.2 W 43 54 23 29 1011.7 1012.0 1.0
 
Date/Time
EST
Temp
°C
App
Temp
°C
Dew
Point
°C
Rel
Hum
%
Delta-T
°C
Wind Press
QNH
hPa
Press
MSL
hPa
Rain since
9am
mm
Dir  Spd
km/h
Gust
km/h
Spd
kts
Gust
kts
25/11:30pm 6.3 -2.4 5.9 97 0.2 W 41 50 22 27 1011.4 - 1.0
25/11:00pm 6.4 -2.7 6.0 97 0.2 W 43 54 23 29 1011.1 - 1.0
25/10:30pm 6.3 -1.3 5.9 97 0.2 WNW 35 41 19 22 1011.0 - 1.0
25/10:00pm 6.2 -1.4 5.6 96 0.3 WNW 35 43 19 23 1010.8 - 0.8
25/09:30pm 6.2 -1.4 5.6 96 0.3 WNW 35 41 19 22 1010.8 - 0.6
25/09:00pm 6.2 -1.4 5.6 96 0.3 NW 35 41 19 22 1010.9 1011.2 0.4
25/08:30pm 5.9 -0.9 5.2 95 0.3 NW 30 33 16 18 1011.2 - 0.2
25/08:00pm 5.8 -0.7 4.8 93 0.4 WNW 28 33 15 18 1010.8 - 0.2
25/07:30pm 5.8 0.0 4.3 90 0.6 WNW 24 28 13 15 1010.9 - 0.2
25/07:00pm 5.6 -2.0 4.1 90 0.6 WNW 33 41 18 22 1010.8 - 0.2
25/06:30pm 5.5 -2.4 4.3 92 0.5 W 35 41 19 22 1010.9 - 0.2
25/06:00pm 5.5 -2.8 4.3 92 0.5 W 37 54 20 29 1010.6 1010.9 0.2
25/05:30pm 5.4 -1.5 4.4 93 0.4 WNW 30 39 16 21 1010.6 - 0.0
25/05:00pm 5.3 -3.8 4.1 92 0.5 W 41 48 22 26 1010.5 - 0.0
25/04:30pm 5.1 -5.0 3.6 90 0.6 W 46 56 25 30 1010.4 - 0.0
25/04:00pm 5.2 -4.6 3.2 87 0.8 W 44 54 24 29 1010.2 - 0.0
25/03:30pm 5.0 -4.9 3.0 87 0.8 W 44 54 24 29 1009.6 - 0.0
25/03:00pm 4.9 -5.3 3.1 88 0.7 W 46 54 25 29 1009.2 1009.5 0.0
25/02:30pm 4.9 -4.7 3.2 89 0.7 W 43 54 23 29 1009.0 - 0.0
25/02:00pm 5.0 -4.8 3.2 88 0.7 W 44 54 24 29 1009.1 - 0.0
25/01:30pm 4.9 -4.7 3.4 90 0.6 W 43 52 23 28 1008.5 - 0.0
25/01:00pm 5.0 -3.5 3.3 89 0.7 W 37 48 20 26 1008.4 - 0.0
25/12:30pm 5.0 -3.9 3.2 88 0.7 W 39 44 21 24 1008.6 - 0.0
25/12:00pm 5.1 -3.4 3.0 86 0.9 W 37 46 20 25 1008.3 1008.6 0.0
25/11:30am 5.3 -3.2 3.0 85 0.9 W 37 46 20 25 1008.4 - 0.0
25/11:00am 4.9 -4.5 2.4 84 1.0 W 41 50 22 27 1008.9 - 0.0
25/10:30am 5.1 -3.6 2.3 82 1.1 W 37 43 20 23 1008.7 - 0.0
25/10:00am 5.0 -3.6 2.5 84 1.0 W 37 46 20 25 1008.6 - 0.0
25/09:30am 5.2 -2.5 3.4 88 0.7 W 33 41 18 22 1008.5 - 0.0
25/09:00am 5.2 -2.3 3.4 88 0.7 W 32 43 17 23 1008.3 1008.6 1.0
25/08:30am 5.0 -2.6 3.0 87 0.8 W 32 44 17 24 1007.7 - 1.0
25/08:00am 5.1 -2.7 3.1 87 0.8 W 33 44 18 24 1007.7 - 1.0
25/07:30am 4.8 -3.3 3.0 88 0.7 W 35 56 19 30 1007.4 - 1.0
25/07:00am 4.9 -3.2 3.4 90 0.6 W 35 57 19 31 1006.7 - 1.0
25/06:30am 5.2 -3.5 4.2 93 0.4 W 39 59 21 32 1006.2 - 1.0
25/06:00am 5.5 -4.1 4.5 93 0.4 W 44 65 24 35 1005.6 1005.9 1.0
25/05:58am 5.4 -4.6 4.4 93 0.4 W 46 65 25 35 1005.6 - 1.0
25/05:30am 5.6 -5.1 4.7 94 0.4 W 50 63 27 34 1004.9 - 0.8
25/05:00am 5.9 -6.1 4.9 93 0.4 W 57 70 31 38 1004.3 - 0.8
25/04:30am 6.0 -4.9 5.3 95 0.3 W 52 63 28 34 1003.6 - 0.8
25/04:03am 6.1 -4.8 5.4 95 0.3 W 52 70 28 38 1003.2 - 0.8
25/04:00am 6.0 -5.3 5.3 95 0.3 W 54 70 29 38 1003.1 - 0.8
25/03:30am 6.1 -4.0 5.5 96 0.3 W 48 57 26 31 1002.8 - 0.6
25/03:00am 6.1 -3.1 5.5 96 0.3 WNW 43 54 23 29 1002.6 1002.9 0.6
25/02:30am 6.2 -3.2 5.6 96 0.3 WNW 44 54 24 29 1002.6 - 0.6
25/02:00am 6.3 -3.8 5.7 96 0.3 WNW 48 61 26 33 1002.7 - 0.6
25/01:30am 6.3 -4.2 5.7 96 0.3 WNW 50 63 27 34 1002.4 - 0.4
25/01:00am 6.3 -4.9 5.7 96 0.3 WNW 54 65 29 35 1001.9 - 0.4
25/12:30am 6.2 -4.7 5.5 95 0.3 NW 52 61 28 33 1001.8 - 0.4
25/12:00am 6.2 -5.1 5.5 95 0.3 NW 54 65 29 35 1002.2 1002.5 0.4
 
Date/Time
EST
Temp
°C
App
Temp
°C
Dew
Point
°C
Rel
Hum
%
Delta-T
°C
Wind Press
QNH
hPa
Press
MSL
hPa
Rain since
9am
mm
Dir  Spd
km/h
Gust
km/h
Spd
kts
Gust
kts
24/11:30pm 6.2 -5.5 5.5 95 0.3 WNW 56 67 30 36 1002.2 - 0.2
24/11:00pm 6.2 -5.5 5.3 94 0.4 WNW 56 69 30 37 1002.2 - 0.2
24/10:30pm 6.3 -5.4 5.3 93 0.4 WNW 56 65 30 35 1002.3 - 0.2
24/10:00pm 6.2 -5.1 5.2 93 0.4 NW 54 67 29 36 1002.4 - 0.2
24/09:30pm 6.1 -5.8 5.2 94 0.4 NW 57 67 31 36 1002.5 - 0.2
24/09:00pm 6.2 -5.5 5.3 94 0.4 NW 56 69 30 37 1002.7 1003.0 0.2
24/08:30pm 6.2 -5.5 5.5 95 0.3 NW 56 67 30 36 1002.6 - 0.2
24/08:00pm 6.2 -5.1 5.5 95 0.3 NW 54 65 29 35 1002.6 - 0.2
24/07:30pm 6.3 -5.3 5.6 95 0.3 NW 56 67 30 36 1002.7 - 0.2
24/07:00pm 6.5 -5.3 5.5 93 0.4 NW 57 69 31 37 1002.7 - 0.2
24/06:30pm 6.4 -5.3 5.2 92 0.5 WNW 56 69 30 37 1002.8 - 0.2
24/06:00pm 6.3 -5.0 5.3 93 0.4 NW 54 65 29 35 1002.8 1003.1 0.2
24/05:30pm 6.1 -5.3 5.1 93 0.4 NW 54 69 29 37 1002.9 - 0.2
24/05:00pm 6.0 -5.8 5.0 93 0.4 NW 56 65 30 35 1003.0 - 0.2
24/04:30pm 6.0 -5.5 4.5 90 0.6 WNW 54 70 29 38 1002.8 - 0.2
24/04:00pm 6.0 -6.1 4.2 88 0.8 WNW 57 74 31 40 1002.9 - 0.2
24/03:30pm 6.0 -6.0 3.8 86 0.9 WNW 56 70 30 38 1002.9 - 0.2
24/03:00pm 5.8 -5.8 3.8 87 0.8 NW 54 69 29 37 1003.2 1003.5 0.2
24/02:35pm 5.7 -6.0 3.5 86 0.9 NW 54 72 29 39 1003.4 - 0.2
24/02:30pm 5.7 -5.6 3.5 86 0.9 NW 52 63 28 34 1003.4 - 0.2
24/02:00pm 5.5 -6.6 3.3 86 0.9 WNW 56 67 30 36 1003.7 - 0.2
24/01:30pm 5.3 -5.6 3.6 89 0.7 WNW 50 61 27 33 1004.1 - 0.2
24/01:00pm 5.3 -6.4 3.5 88 0.7 WNW 54 65 29 35 1004.3 - 0.2
24/12:30pm 5.2 -5.3 3.4 88 0.7 WNW 48 65 26 35 1004.6 - 0.2
24/12:00pm 5.3 -6.4 3.2 86 0.9 WNW 54 63 29 34 1004.7 1005.0 0.0
24/11:30am 5.4 -4.4 3.4 87 0.8 WNW 44 57 24 31 1005.0 - 0.0
24/11:00am 5.5 -5.2 2.8 83 1.1 WNW 48 61 26 33 1005.0 - 0.0
24/10:30am 5.4 -5.6 2.9 84 1.0 WNW 50 63 27 34 1005.1 - 0.0
24/10:00am 5.4 -5.3 2.8 83 1.1 WNW 48 57 26 31 1005.3 - 0.0
24/09:30am 5.2 -4.6 3.1 86 0.9 WNW 44 56 24 30 1005.4 - 0.0
24/09:00am 5.5 -5.1 3.2 85 1.0 WNW 48 61 26 33 1005.5 1005.8 1.4
24/08:30am 5.5 -4.4 3.0 84 1.0 WNW 44 57 24 31 1005.2 - 1.4
24/08:03am 5.3 -5.8 2.7 83 1.1 W 50 69 27 37 1005.5 - 1.4
24/08:00am 5.4 -5.6 2.8 83 1.1 W 50 65 27 35 1005.3 - 1.4
24/07:30am 5.2 -5.1 2.7 84 1.0 W 46 61 25 33 1004.9 - 1.4
24/07:00am 4.9 -6.1 3.1 88 0.7 W 50 61 27 33 1004.6 - 1.4
24/06:30am 4.8 -5.0 3.5 91 0.5 W 44 56 24 30 1004.0 - 1.4
24/06:00am 5.0 -4.6 3.5 90 0.6 WNW 43 56 23 30 1003.5 1003.8 1.2
24/05:30am 4.8 -5.7 3.5 91 0.5 W 48 61 26 33 1003.3 - 1.2
24/05:00am 4.9 -4.8 3.7 92 0.5 W 44 57 24 31 1003.0 - 1.2
24/04:34am 5.0 -4.7 3.7 91 0.5 WNW 44 63 24 34 1002.8 - 1.2
24/04:30am 4.9 -5.2 3.6 91 0.5 W 46 56 25 30 1002.8 - 1.2
24/04:00am 5.0 -4.8 3.3 89 0.7 W 44 59 24 32 1002.7 - 1.2
24/03:30am 5.0 -4.3 3.0 87 0.8 WNW 41 54 22 29 1002.6 - 1.2
24/03:18am 5.0 -5.2 3.0 87 0.8 W 46 65 25 35 1002.7 - 1.2
24/03:00am 4.9 -5.0 2.6 85 0.9 WNW 44 59 24 32 1002.6 1002.9 1.2
24/02:35am 5.0 -5.3 2.5 84 1.0 W 46 65 25 35 1002.3 - 1.2
24/02:30am 5.0 -5.7 2.5 84 1.0 W 48 61 26 33 1002.3 - 1.2
24/02:03am 4.8 -6.4 2.0 82 1.1 W 50 74 27 40 1002.3 - 1.2
24/02:00am 5.0 -6.1 2.4 83 1.1 W 50 65 27 35 1002.3 - 1.2
24/01:32am 4.9 -7.0 2.1 82 1.1 W 54 72 29 39 1002.0 - 1.2
24/01:30am 4.9 -7.4 1.9 81 1.2 W 56 72 30 39 1002.0 - 1.2
24/01:00am 4.8 -6.4 1.8 81 1.2 W 50 63 27 34 1001.7 - 1.2
24/12:30am 4.8 -7.2 1.3 78 1.4 W 54 72 29 39 1001.7 - 1.2
24/12:06am 4.6 -6.7 1.3 79 1.3 W 50 69 27 37 1001.7 - 1.2
24/12:00am 4.6 -5.9 1.5 80 1.2 WNW 46 59 25 32 1001.5 1001.8 1.2
 
Date/Time
EST
Temp
°C
App
Temp
°C
Dew
Point
°C
Rel
Hum
%
Delta-T
°C
Wind Press
QNH
hPa
Press
MSL
hPa
Rain since
9am
mm
Dir  Spd
km/h
Gust
km/h
Spd
kts
Gust
kts
23/11:30pm 4.3 -7.0 1.0 79 1.3 W 50 59 27 32 1001.2 - 1.2
23/11:00pm 4.3 -6.2 1.3 81 1.2 W 46 59 25 32 1001.1 - 1.2
23/10:30pm 4.2 -6.3 1.4 82 1.1 W 46 63 25 34 1001.0 - 1.2
23/10:00pm 4.2 -6.7 1.6 83 1.0 W 48 57 26 31 1000.8 - 1.2
23/09:30pm 4.2 -6.3 1.6 83 1.0 W 46 57 25 31 1000.3 - 1.2
23/09:00pm 4.2 -6.2 1.9 85 0.9 W 46 57 25 31 1000.2 1000.5 1.2
23/08:30pm 4.2 -5.5 2.6 89 0.6 W 43 56 23 30 999.9 - 1.2
23/08:00pm 4.1 -3.7 2.8 91 0.5 W 33 44 18 24 999.6 - 1.2
23/07:30pm 4.3 -3.8 3.1 92 0.5 W 35 46 19 25 999.3 - 1.2
23/07:00pm 4.6 -4.6 3.4 92 0.5 W 41 52 22 28 998.8 - 1.2
23/06:30pm 4.8 -3.6 3.9 94 0.4 W 37 48 20 26 998.5 - 1.2
23/06:00pm 5.1 -3.5 4.4 95 0.3 W 39 48 21 26 998.1 998.4 1.2
23/05:30pm 5.8 -2.8 4.9 94 0.4 WNW 39 46 21 25 997.7 - 1.0
23/05:00pm 5.8 -2.4 4.9 94 0.4 W 37 48 20 26 997.5 - 1.0
23/04:30pm 5.9 -2.3 5.0 94 0.4 WNW 37 44 20 24 997.1 - 1.0
23/04:00pm 6.0 -1.8 5.1 94 0.4 W 35 46 19 25 996.9 - 1.0
23/03:33pm 6.1 -2.8 5.2 94 0.4 WNW 41 59 22 32 996.6 - 0.8
23/03:30pm 6.2 -3.0 5.3 94 0.4 WNW 43 59 23 32 996.6 - 0.8
23/03:00pm 6.2 -3.2 5.3 94 0.4 WNW 44 56 24 30 996.2 996.5 0.8
23/02:30pm 6.3 -3.1 5.6 95 0.3 WNW 44 54 24 29 995.9 - 0.8
23/02:00pm 6.3 -2.8 5.7 96 0.3 WNW 43 50 23 27 995.7 - 0.8
23/01:30pm 6.3 -3.4 5.9 97 0.2 WNW 46 56 25 30 995.5 - 0.8
23/01:00pm 6.4 -2.9 6.0 97 0.2 NW 44 54 24 29 995.2 - 0.8
23/12:30pm 6.5 -2.8 6.1 97 0.2 WNW 44 56 24 30 995.2 - 0.8
23/12:00pm 6.6 -3.0 6.2 97 0.2 NW 46 54 25 29 994.9 995.2 0.8
23/11:30am 6.6 -3.4 6.2 97 0.2 NW 48 56 26 30 995.1 - 0.8
23/11:00am 6.6 -3.8 6.2 97 0.2 NW 50 59 27 32 995.2 - 0.6
23/10:30am 6.7 -2.3 6.3 97 0.2 NW 43 56 23 30 995.1 - 0.6

Other formats

Comma delimited format used in spreadsheet applications
http://www.bom.gov.au/fwo/IDT60801/IDT60801.94998.axf

JavaScript Object Notation format (JSON) in row-major order
http://www.bom.gov.au/fwo/IDT60801/IDT60801.94998.json

Data quality

Most of these data are generated automatically and are frequently updated. Quality checks on data are not normally performed. It is possible for incorrect values to appear. Refer to information at About Latest Weather Observations and please check the disclaimer before using these data.